Time;durP1;ratioP1;P1;durP2;ratioP2;P2;SDS_P1;SDS_P2;PMS_P1;PMS_P2;Temp;Humidity;BMP_temperature;BMP_pressure;BME280_temperature;BME280_humidity;BME280_pressure;Samples;Min_cycle;Max_cycle;Signal;HPM_P1;HPM_P2
2022/02/20 00:01:33;;;;;;;26.27;13.38;;;;;;;;;;4879403;29;20082;-77
2022/02/20 00:04:00;;;;;;;30.80;11.98;;;;;;;;;;4878384;29;20584;-77
2022/02/20 00:06:26;;;;;;;27.65;12.85;;;;;;;;;;4878920;29;20403;-77
2022/02/20 00:08:52;;;;;;;24.65;12.32;;;;;;;;;;4869082;29;20674;-77
2022/02/20 00:11:18;;;;;;;26.42;12.98;;;;;;;;;;4861791;29;20096;-77
2022/02/20 00:13:44;;;;;;;30.15;13.40;;;;;;;;;;4878707;29;20029;-77
2022/02/20 00:16:10;;;;;;;29.60;14.32;;;;;;;;;;4879007;29;20080;-77
2022/02/20 00:18:36;;;;;;;27.50;13.73;;;;;;;;;;4878301;29;20139;-78
2022/02/20 00:21:02;;;;;;;25.63;13.60;;;;;;;;;;4878778;29;20100;-77
2022/02/20 00:23:29;;;;;;;31.77;13.30;;;;;;;;;;4878345;29;20037;-77
2022/02/20 00:25:55;;;;;;;32.50;14.13;;;;;;;;;;4866348;29;20392;-77
2022/02/20 00:28:23;;;;;;;27.70;13.20;;;;;;;;;;4876470;29;20047;-77
2022/02/20 00:30:49;;;;;;;24.95;12.32;;;;;;;;;;4878483;29;20040;-77
2022/02/20 00:33:15;;;;;;;28.52;12.40;;;;;;;;;;4878008;29;20107;-77
2022/02/20 00:35:41;;;;;;;23.55;11.90;;;;;;;;;;4864152;29;20040;-77
2022/02/20 00:38:08;;;;;;;28.08;13.68;;;;;;;;;;4870762;29;20039;-77
2022/02/20 00:40:34;;;;;;;27.88;13.23;;;;;;;;;;4878119;29;20111;-77
2022/02/20 00:43:01;;;;;;;23.85;11.30;;;;;;;;;;4877972;29;20063;-77
2022/02/20 00:45:27;;;;;;;25.63;11.27;;;;;;;;;;4878558;29;20041;-77
2022/02/20 00:47:53;;;;;;;23.08;11.05;;;;;;;;;;4870667;29;20044;-77
2022/02/20 00:50:20;;;;;;;19.52;9.48;;;;;;;;;;4868154;29;20037;-77
2022/02/20 00:52:46;;;;;;;22.20;10.95;;;;;;;;;;4875071;29;20041;-77
2022/02/20 00:55:12;;;;;;;22.90;10.40;;;;;;;;;;4861636;29;20037;-77
2022/02/20 00:57:38;;;;;;;22.85;9.63;;;;;;;;;;4874970;29;20037;-77
2022/02/20 01:00:06;;;;;;;20.67;8.95;;;;;;;;;;4859918;29;20068;-78
2022/02/20 01:02:32;;;;;;;27.10;9.27;;;;;;;;;;4861116;29;20503;-77
2022/02/20 01:04:58;;;;;;;24.85;9.55;;;;;;;;;;4878178;29;20041;-77
2022/02/20 01:07:24;;;;;;;27.25;8.95;;;;;;;;;;4878681;29;20029;-78
2022/02/20 01:09:50;;;;;;;18.27;8.07;;;;;;;;;;4877911;29;20041;-77
2022/02/20 01:12:16;;;;;;;20.20;8.75;;;;;;;;;;4876493;29;20605;-77
2022/02/20 01:14:43;;;;;;;20.38;8.25;;;;;;;;;;4859857;29;20041;-77
2022/02/20 01:17:09;;;;;;;16.67;8.48;;;;;;;;;;4859693;29;20057;-77
2022/02/20 01:19:35;;;;;;;16.73;7.60;;;;;;;;;;4876435;29;20756;-77
2022/02/20 01:22:01;;;;;;;17.27;6.03;;;;;;;;;;4873413;29;20091;-77
2022/02/20 01:24:27;;;;;;;18.55;6.80;;;;;;;;;;4878026;29;20068;-77
2022/02/20 01:26:53;;;;;;;18.67;6.22;;;;;;;;;;4878829;29;20069;-77
2022/02/20 01:29:19;;;;;;;15.70;5.60;;;;;;;;;;4868276;29;20506;-77
2022/02/20 01:31:45;;;;;;;12.95;4.25;;;;;;;;;;4878360;29;20040;-77
2022/02/20 01:34:11;;;;;;;15.55;3.72;;;;;;;;;;4877102;29;20543;-77
2022/02/20 01:36:37;;;;;;;8.65;1.88;;;;;;;;;;4878060;29;20040;-77
2022/02/20 01:39:03;;;;;;;9.00;1.67;;;;;;;;;;4869548;29;20038;-77
2022/02/20 01:41:29;;;;;;;10.60;2.22;;;;;;;;;;4859487;29;20045;-77
2022/02/20 01:43:55;;;;;;;6.93;2.05;;;;;;;;;;4860643;29;20061;-77
2022/02/20 01:46:21;;;;;;;10.70;2.90;;;;;;;;;;4859269;29;20046;-77
2022/02/20 01:48:48;;;;;;;11.27;3.50;;;;;;;;;;4862023;29;20047;-77
2022/02/20 01:51:14;;;;;;;10.88;3.53;;;;;;;;;;4877748;29;20547;-77
2022/02/20 01:53:41;;;;;;;14.77;3.72;;;;;;;;;;4877184;29;20472;-77
2022/02/20 01:56:07;;;;;;;12.82;3.58;;;;;;;;;;4878008;29;20043;-77
2022/02/20 01:58:33;;;;;;;14.23;3.58;;;;;;;;;;4860623;29;20073;-77
2022/02/20 02:01:02;;;;;;;10.32;3.30;;;;;;;;;;4860038;29;20164;-78
2022/02/20 02:03:28;;;;;;;12.98;2.92;;;;;;;;;;4868606;29;20025;-77
2022/02/20 02:05:54;;;;;;;11.27;3.63;;;;;;;;;;4861739;29;20044;-77
2022/02/20 02:08:21;;;;;;;13.65;3.63;;;;;;;;;;4858815;29;20033;-77
2022/02/20 02:10:47;;;;;;;9.20;3.70;;;;;;;;;;4871961;29;20077;-77
2022/02/20 02:13:13;;;;;;;12.77;3.88;;;;;;;;;;4877565;29;20061;-77
2022/02/20 02:15:49;;;;;;;14.10;4.18;;;;;;;;;;4875620;29;20758;-76
2022/02/20 02:18:15;;;;;;;20.02;7.20;;;;;;;;;;4876364;29;20049;-77
2022/02/20 02:20:41;;;;;;;16.65;7.53;;;;;;;;;;4876428;29;20483;-77
2022/02/20 02:23:07;;;;;;;23.88;9.82;;;;;;;;;;4860267;29;20032;-77
2022/02/20 02:25:35;;;;;;;20.15;9.48;;;;;;;;;;4873716;29;20029;-76
2022/02/20 02:28:01;;;;;;;17.55;7.43;;;;;;;;;;4858803;29;20129;-77
2022/02/20 02:30:27;;;;;;;19.27;7.25;;;;;;;;;;4875732;29;20112;-77
2022/02/20 02:32:53;;;;;;;15.63;4.43;;;;;;;;;;4877479;29;20037;-77
2022/02/20 02:35:19;;;;;;;8.77;2.25;;;;;;;;;;4876963;29;20025;-77
2022/02/20 02:37:45;;;;;;;9.82;3.85;;;;;;;;;;4877007;29;20045;-77
2022/02/20 02:40:11;;;;;;;13.70;4.55;;;;;;;;;;4876818;29;20082;-77
2022/02/20 02:42:37;;;;;;;12.15;3.95;;;;;;;;;;4872412;29;20064;-77
2022/02/20 02:45:04;;;;;;;12.30;4.47;;;;;;;;;;4876792;29;20443;-77
2022/02/20 02:47:30;;;;;;;15.13;4.50;;;;;;;;;;4873394;29;20045;-77
2022/02/20 02:49:56;;;;;;;14.57;4.35;;;;;;;;;;4876530;29;20387;-77
2022/02/20 02:52:22;;;;;;;10.70;3.00;;;;;;;;;;4867178;29;20152;-77
2022/02/20 02:54:49;;;;;;;7.50;2.35;;;;;;;;;;4876947;29;20716;-77
2022/02/20 02:57:15;;;;;;;10.52;2.85;;;;;;;;;;4867066;29;20543;-77
2022/02/20 02:59:41;;;;;;;12.15;3.47;;;;;;;;;;4857820;29;20715;-77
2022/02/20 03:02:08;;;;;;;7.93;2.47;;;;;;;;;;4858386;29;20114;-78
2022/02/20 03:04:34;;;;;;;10.90;2.80;;;;;;;;;;4870660;29;20037;-77
2022/02/20 03:07:01;;;;;;;9.27;2.60;;;;;;;;;;4876614;29;20048;-77
2022/02/20 03:09:27;;;;;;;12.55;3.08;;;;;;;;;;4876299;29;20068;-77
2022/02/20 03:11:53;;;;;;;9.50;2.65;;;;;;;;;;4875911;29;20105;-77
2022/02/20 03:14:20;;;;;;;10.20;3.13;;;;;;;;;;4865353;29;20061;-77
2022/02/20 03:16:46;;;;;;;12.80;3.10;;;;;;;;;;4858881;29;20053;-78
2022/02/20 03:19:12;;;;;;;9.52;3.10;;;;;;;;;;4857540;29;20471;-77
2022/02/20 03:21:38;;;;;;;11.88;3.33;;;;;;;;;;4858259;29;20049;-77
2022/02/20 03:24:05;;;;;;;12.18;3.15;;;;;;;;;;4864396;29;20029;-76
2022/02/20 03:26:31;;;;;;;9.10;2.83;;;;;;;;;;4876631;29;20052;-77
2022/02/20 03:28:57;;;;;;;9.40;2.40;;;;;;;;;;4862142;29;20041;-77
2022/02/20 03:31:23;;;;;;;9.02;3.00;;;;;;;;;;4866184;29;20076;-77
2022/02/20 03:33:49;;;;;;;11.88;6.15;;;;;;;;;;4858747;29;20037;-77
2022/02/20 03:36:15;;;;;;;9.07;2.25;;;;;;;;;;4876296;29;20036;-77
2022/02/20 03:38:42;;;;;;;9.18;2.55;;;;;;;;;;4866690;29;20373;-77
2022/02/20 03:41:08;;;;;;;10.55;4.70;;;;;;;;;;4868468;29;20132;-77
2022/02/20 03:43:34;;;;;;;9.32;2.35;;;;;;;;;;4858445;29;20043;-76
2022/02/20 03:46:01;;;;;;;8.85;3.40;;;;;;;;;;4875985;29;20048;-77
2022/02/20 03:48:27;;;;;;;10.13;2.67;;;;;;;;;;4872869;29;20036;-77
2022/02/20 03:50:53;;;;;;;6.30;2.08;;;;;;;;;;4863450;29;20041;-77
2022/02/20 03:53:19;;;;;;;9.48;2.40;;;;;;;;;;4874303;29;20412;-76
2022/02/20 03:55:45;;;;;;;10.77;2.78;;;;;;;;;;4857676;29;20072;-77
2022/02/20 03:58:11;;;;;;;10.52;3.10;;;;;;;;;;4857393;29;20037;-77
2022/02/20 04:00:37;;;;;;;9.93;2.85;;;;;;;;;;4873265;29;20037;-77
2022/02/20 04:03:03;;;;;;;9.70;2.72;;;;;;;;;;4875767;29;20068;-77
2022/02/20 04:05:29;;;;;;;9.77;2.78;;;;;;;;;;4874612;29;20036;-77
2022/02/20 04:07:55;;;;;;;8.48;2.53;;;;;;;;;;4876562;29;20471;-77
2022/02/20 04:10:21;;;;;;;10.10;3.15;;;;;;;;;;4875255;29;20783;-77
2022/02/20 04:12:47;;;;;;;6.82;2.42;;;;;;;;;;4858975;29;20081;-77
2022/02/20 04:15:13;;;;;;;13.65;3.17;;;;;;;;;;4875265;29;20041;-77
2022/02/20 04:17:43;;;;;;;10.35;4.03;;;;;;;;;;4875590;29;20060;-77
2022/02/20 04:20:12;;;;;;;10.05;3.28;;;;;;;;;;4875110;29;20064;-77
2022/02/20 04:22:38;;;;;;;12.80;5.43;;;;;;;;;;4876539;29;20824;-77
2022/02/20 04:25:05;;;;;;;11.02;6.30;;;;;;;;;;4868886;29;20433;-77
2022/02/20 04:27:31;;;;;;;13.05;4.03;;;;;;;;;;4863472;29;20049;-77
2022/02/20 04:29:57;;;;;;;10.73;3.30;;;;;;;;;;4874943;29;20064;-77
2022/02/20 04:32:23;;;;;;;10.55;3.30;;;;;;;;;;4861657;29;20049;-77
2022/02/20 04:34:49;;;;;;;10.70;3.30;;;;;;;;;;4870739;29;20092;-77
2022/02/20 04:37:15;;;;;;;11.95;3.63;;;;;;;;;;4875902;29;20472;-78
2022/02/20 04:39:41;;;;;;;17.65;4.15;;;;;;;;;;4875328;29;20081;-77
2022/02/20 04:42:07;;;;;;;7.63;3.13;;;;;;;;;;4848951;29;20085;-77
2022/02/20 04:44:33;;;;;;;12.18;3.08;;;;;;;;;;4877610;29;20072;-76
2022/02/20 04:46:59;;;;;;;23.05;10.73;;;;;;;;;;4878675;29;20102;-77
2022/02/20 04:49:25;;;;;;;16.38;5.38;;;;;;;;;;4878429;29;20120;-77
2022/02/20 04:51:51;;;;;;;9.23;3.38;;;;;;;;;;4869503;29;20482;-77
2022/02/20 04:54:17;;;;;;;8.48;3.40;;;;;;;;;;4878433;29;20033;-77
2022/02/20 04:56:44;;;;;;;15.93;5.45;;;;;;;;;;4878879;29;20032;-76
2022/02/20 04:59:13;;;;;;;9.52;4.38;;;;;;;;;;4862193;29;20041;-77
2022/02/20 05:01:39;;;;;;;26.75;11.68;;;;;;;;;;4864563;29;20056;-77
2022/02/20 05:04:06;;;;;;;14.27;5.72;;;;;;;;;;4864081;29;20033;-77
2022/02/20 05:06:32;;;;;;;12.15;4.05;;;;;;;;;;4877370;29;20072;-78
2022/02/20 05:08:58;;;;;;;11.15;3.55;;;;;;;;;;4877992;29;20612;-77
2022/02/20 05:11:27;;;;;;;10.02;3.15;;;;;;;;;;4874405;29;20131;-77
2022/02/20 05:13:54;;;;;;;13.63;3.92;;;;;;;;;;4870660;29;20084;-77
2022/02/20 05:16:21;;;;;;;9.90;3.15;;;;;;;;;;4877767;29;20030;-77
2022/02/20 05:18:47;;;;;;;10.88;3.47;;;;;;;;;;4860195;29;20049;-77
2022/02/20 05:21:13;;;;;;;13.07;3.63;;;;;;;;;;4843082;29;20041;-77
2022/02/20 05:23:39;;;;;;;12.02;3.72;;;;;;;;;;4877686;29;20040;-77
2022/02/20 05:26:05;;;;;;;11.80;4.97;;;;;;;;;;4878370;29;20040;-77
2022/02/20 05:28:31;;;;;;;12.82;5.95;;;;;;;;;;4875186;29;20056;-77
2022/02/20 05:30:57;;;;;;;14.00;5.78;;;;;;;;;;4878220;29;20476;-77
2022/02/20 05:33:23;;;;;;;12.88;5.30;;;;;;;;;;4869724;29;20040;-77
2022/02/20 05:35:50;;;;;;;10.45;4.97;;;;;;;;;;4877916;29;20037;-77
2022/02/20 05:38:16;;;;;;;12.30;4.55;;;;;;;;;;4877643;29;20032;-78
2022/02/20 05:40:43;;;;;;;12.88;5.00;;;;;;;;;;4866841;29;20030;-77
2022/02/20 05:43:09;;;;;;;15.65;5.50;;;;;;;;;;4867250;29;20493;-77
2022/02/20 05:45:35;;;;;;;12.85;4.30;;;;;;;;;;4877743;29;20029;-77
2022/02/20 05:48:03;;;;;;;11.80;4.90;;;;;;;;;;4877750;29;20855;-77
2022/02/20 05:50:29;;;;;;;13.30;5.13;;;;;;;;;;4877594;29;20028;-77
2022/02/20 05:52:55;;;;;;;13.18;5.25;;;;;;;;;;4877712;29;20076;-77
2022/02/20 05:55:21;;;;;;;14.00;5.25;;;;;;;;;;4878117;29;20039;-78
2022/02/20 05:57:49;;;;;;;14.07;5.32;;;;;;;;;;4877493;29;20044;-77
2022/02/20 06:00:16;;;;;;;11.30;6.10;;;;;;;;;;4876987;29;20053;-78
2022/02/20 06:02:42;;;;;;;11.48;5.65;;;;;;;;;;4859507;29;20696;-78
2022/02/20 06:05:09;;;;;;;11.52;5.45;;;;;;;;;;4862573;29;20708;-77
2022/02/20 06:07:35;;;;;;;13.40;4.43;;;;;;;;;;4877475;29;20045;-77
2022/02/20 06:10:02;;;;;;;11.88;4.55;;;;;;;;;;4877426;29;20032;-77
2022/02/20 06:12:28;;;;;;;10.32;3.30;;;;;;;;;;4877443;29;20045;-77
2022/02/20 06:14:54;;;;;;;12.30;3.75;;;;;;;;;;4876711;29;20383;-77
2022/02/20 06:17:20;;;;;;;12.93;3.20;;;;;;;;;;4863631;29;20066;-77
2022/02/20 06:19:46;;;;;;;11.48;3.28;;;;;;;;;;4872467;29;20041;-77
2022/02/20 06:22:12;;;;;;;15.63;3.92;;;;;;;;;;4866400;29;20041;-77
2022/02/20 06:24:38;;;;;;;11.93;3.35;;;;;;;;;;4872073;29;20039;-76
2022/02/20 06:27:05;;;;;;;9.90;3.30;;;;;;;;;;4866180;29;20088;-76
2022/02/20 06:29:31;;;;;;;11.48;3.40;;;;;;;;;;4858880;29;20033;-77
2022/02/20 06:31:57;;;;;;;12.43;3.05;;;;;;;;;;4866827;29;20051;-76
2022/02/20 06:34:23;;;;;;;11.45;3.08;;;;;;;;;;4869507;29;20029;-77
2022/02/20 06:36:50;;;;;;;10.05;3.58;;;;;;;;;;4873454;29;20373;-77
2022/02/20 06:39:16;;;;;;;11.63;3.58;;;;;;;;;;4859807;29;20035;-77
2022/02/20 06:41:43;;;;;;;10.88;3.38;;;;;;;;;;4864654;29;20372;-77
2022/02/20 06:44:09;;;;;;;10.23;4.00;;;;;;;;;;4841284;29;20037;-77
2022/02/20 06:46:35;;;;;;;12.38;3.90;;;;;;;;;;4875643;29;20037;-77
2022/02/20 06:49:01;;;;;;;10.85;3.88;;;;;;;;;;4875697;29;20863;-77
2022/02/20 06:51:28;;;;;;;12.68;4.18;;;;;;;;;;4876021;29;20040;-77
2022/02/20 06:53:54;;;;;;;12.30;3.22;;;;;;;;;;4861557;29;20034;-77
2022/02/20 06:56:20;;;;;;;11.70;3.72;;;;;;;;;;4869483;29;20048;-77
2022/02/20 06:58:46;;;;;;;9.13;3.38;;;;;;;;;;4864806;29;20033;-77
2022/02/20 07:01:12;;;;;;;7.72;3.00;;;;;;;;;;4870083;29;20491;-77
2022/02/20 07:03:38;;;;;;;11.60;3.45;;;;;;;;;;4849705;29;20029;-77
2022/02/20 07:06:04;;;;;;;11.02;3.70;;;;;;;;;;4865671;29;20053;-77
2022/02/20 07:08:31;;;;;;;8.32;3.30;;;;;;;;;;4874823;29;20067;-77
2022/02/20 07:10:57;;;;;;;12.48;3.78;;;;;;;;;;4864139;29;20045;-77
2022/02/20 07:13:23;;;;;;;14.25;3.83;;;;;;;;;;4860307;29;20029;-77
2022/02/20 07:15:49;;;;;;;12.90;3.22;;;;;;;;;;4875823;29;20479;-76
2022/02/20 07:18:16;;;;;;;9.35;3.03;;;;;;;;;;4872731;29;20057;-77
2022/02/20 07:20:42;;;;;;;9.77;3.25;;;;;;;;;;4873211;29;20048;-77
2022/02/20 07:23:08;;;;;;;11.75;3.30;;;;;;;;;;4874462;29;20148;-77
2022/02/20 07:25:34;;;;;;;9.88;3.55;;;;;;;;;;4873805;29;20025;-77
2022/02/20 07:28:01;;;;;;;9.82;4.50;;;;;;;;;;4868993;29;20383;-77
2022/02/20 07:30:28;;;;;;;9.75;3.95;;;;;;;;;;4866952;29;20044;-77
2022/02/20 07:33:00;;;;;;;12.77;5.53;;;;;;;;;;4870698;29;20041;-77
2022/02/20 07:35:26;;;;;;;10.65;4.80;;;;;;;;;;4868519;29;20030;-78
2022/02/20 07:37:53;;;;;;;16.52;4.55;;;;;;;;;;4873792;29;20531;-77
2022/02/20 07:40:19;;;;;;;10.48;5.30;;;;;;;;;;4867972;29;20387;-77
2022/02/20 07:42:45;;;;;;;11.00;3.53;;;;;;;;;;4871223;29;20062;-77
2022/02/20 07:45:11;;;;;;;6.53;2.42;;;;;;;;;;4864612;29;20043;-77
2022/02/20 07:47:58;;;;;;;8.55;2.33;;;;;;;;;;4874249;29;20073;-77
2022/02/20 07:50:26;;;;;;;9.10;2.40;;;;;;;;;;4866373;29;20630;-77
2022/02/20 07:52:52;;;;;;;10.43;2.88;;;;;;;;;;4866273;29;20086;-77
2022/02/20 07:55:18;;;;;;;8.50;2.53;;;;;;;;;;4857425;29;20029;-77
2022/02/20 07:57:44;;;;;;;9.13;2.75;;;;;;;;;;4876098;29;20048;-77
2022/02/20 08:00:12;;;;;;;9.55;3.35;;;;;;;;;;4858843;29;20036;-77
2022/02/20 08:02:38;;;;;;;14.50;4.75;;;;;;;;;;4871462;29;20049;-77
2022/02/20 08:05:04;;;;;;;12.95;5.13;;;;;;;;;;4871322;29;20124;-77
2022/02/20 08:07:30;;;;;;;12.80;4.68;;;;;;;;;;4872307;29;20041;-77
2022/02/20 08:09:56;;;;;;;14.68;4.68;;;;;;;;;;4863088;29;20495;-78
2022/02/20 08:12:22;;;;;;;11.15;3.63;;;;;;;;;;4864555;29;20049;-77
2022/02/20 08:14:48;;;;;;;8.85;3.35;;;;;;;;;;4867379;29;20030;-77
2022/02/20 08:17:15;;;;;;;12.82;3.10;;;;;;;;;;4853366;29;20063;-76
2022/02/20 08:19:41;;;;;;;7.85;2.55;;;;;;;;;;4877120;29;20029;-76
2022/02/20 08:22:07;;;;;;;10.27;2.80;;;;;;;;;;4861933;29;20044;-77
2022/02/20 08:24:33;;;;;;;11.90;2.60;;;;;;;;;;4876389;29;20112;-77
2022/02/20 08:26:59;;;;;;;14.77;7.25;;;;;;;;;;4868149;29;20523;-77
2022/02/20 08:29:25;;;;;;;17.35;7.38;;;;;;;;;;4872173;29;20033;-77
2022/02/20 08:31:51;;;;;;;11.35;4.03;;;;;;;;;;4878518;29;20044;-77
2022/02/20 08:34:18;;;;;;;11.82;2.90;;;;;;;;;;4880015;29;20037;-77
2022/02/20 08:36:44;;;;;;;9.80;3.20;;;;;;;;;;4879723;29;20124;-76
2022/02/20 08:39:10;;;;;;;16.90;6.53;;;;;;;;;;4879572;29;20614;-77
2022/02/20 08:41:36;;;;;;;13.88;3.95;;;;;;;;;;4876293;29;20047;-77
2022/02/20 08:44:03;;;;;;;10.50;3.70;;;;;;;;;;4878235;29;20061;-77
2022/02/20 08:46:29;;;;;;;10.52;2.90;;;;;;;;;;4878675;29;20037;-77
2022/02/20 08:48:55;;;;;;;9.77;2.70;;;;;;;;;;4878374;29;20065;-77
2022/02/20 08:51:21;;;;;;;10.43;2.95;;;;;;;;;;4873603;29;20041;-77
2022/02/20 08:53:47;;;;;;;6.68;1.92;;;;;;;;;;4877703;29;20097;-77
2022/02/20 08:56:13;;;;;;;7.60;2.67;;;;;;;;;;4876423;29;20041;-76
2022/02/20 08:58:40;;;;;;;6.90;2.08;;;;;;;;;;4872783;29;20089;-75
2022/02/20 09:01:06;;;;;;;8.18;2.42;;;;;;;;;;4848229;29;20171;-75
2022/02/20 09:03:32;;;;;;;10.65;3.20;;;;;;;;;;4873253;29;20033;-75
2022/02/20 09:05:58;;;;;;;7.85;3.10;;;;;;;;;;4869825;29;20129;-74
2022/02/20 09:08:24;;;;;;;9.38;2.83;;;;;;;;;;4877044;29;20832;-74
2022/02/20 09:10:50;;;;;;;9.43;2.40;;;;;;;;;;4867446;29;20033;-74
2022/02/20 09:13:17;;;;;;;8.05;2.10;;;;;;;;;;4869716;29;20048;-74
2022/02/20 09:15:43;;;;;;;7.80;2.05;;;;;;;;;;4869169;29;20029;-74
2022/02/20 09:18:09;;;;;;;4.93;1.48;;;;;;;;;;4873843;29;20049;-74
2022/02/20 09:20:35;;;;;;;10.20;3.00;;;;;;;;;;4862730;29;20488;-74
2022/02/20 09:23:01;;;;;;;8.00;2.17;;;;;;;;;;4867024;29;20131;-74
2022/02/20 09:25:27;;;;;;;8.02;2.13;;;;;;;;;;4874585;29;20559;-74
2022/02/20 09:27:53;;;;;;;8.73;2.15;;;;;;;;;;4875000;29;20128;-74
2022/02/20 09:30:19;;;;;;;8.93;2.15;;;;;;;;;;4866746;29;20064;-74
2022/02/20 09:32:46;;;;;;;12.50;2.25;;;;;;;;;;4869797;29;20132;-74
2022/02/20 09:35:12;;;;;;;11.43;2.38;;;;;;;;;;4867911;29;20029;-74
2022/02/20 09:37:38;;;;;;;8.38;2.40;;;;;;;;;;4870209;29;20044;-74
2022/02/20 09:40:05;;;;;;;8.88;2.75;;;;;;;;;;4874603;29;20032;-74
2022/02/20 09:42:31;;;;;;;8.23;2.65;;;;;;;;;;4875530;29;20049;-74
2022/02/20 09:44:57;;;;;;;10.57;2.42;;;;;;;;;;4875478;29;20048;-75
2022/02/20 09:47:27;;;;;;;10.80;2.03;;;;;;;;;;4876787;29;20053;-74
2022/02/20 09:49:57;;;;;;;9.15;1.50;;;;;;;;;;4874490;29;20031;-74
2022/02/20 09:52:23;;;;;;;5.75;1.95;;;;;;;;;;4874050;29;21273;-74
2022/02/20 09:54:49;;;;;;;7.25;1.60;;;;;;;;;;4876507;29;20425;-74
2022/02/20 09:57:15;;;;;;;6.97;2.20;;;;;;;;;;4876896;29;20085;-74
2022/02/20 09:59:41;;;;;;;6.90;1.75;;;;;;;;;;4868200;29;20417;-74
2022/02/20 10:02:13;;;;;;;5.88;1.67;;;;;;;;;;4871247;29;20384;-74
2022/02/20 10:04:40;;;;;;;5.38;1.70;;;;;;;;;;4869236;29;20029;-74
2022/02/20 10:07:06;;;;;;;6.43;1.90;;;;;;;;;;4877061;29;20068;-75
2022/02/20 10:09:38;;;;;;;7.65;1.85;;;;;;;;;;4862076;29;20085;-74
2022/02/20 10:12:24;;;;;;;4.63;1.48;;;;;;;;;;4868605;29;20049;-74
2022/02/20 10:14:50;;;;;;;4.85;1.85;;;;;;;;;;4866756;29;20036;-74
2022/02/20 10:17:18;;;;;;;5.20;1.85;;;;;;;;;;4864284;29;20061;-74
2022/02/20 10:20:00;;;;;;;5.30;1.77;;;;;;;;;;4863829;29;20029;-74
2022/02/20 10:22:26;;;;;;;8.85;2.22;;;;;;;;;;4873911;29;20116;-73
2022/02/20 10:25:07;;;;;;;7.10;1.85;;;;;;;;;;4874632;29;20511;-74
2022/02/20 10:27:34;;;;;;;4.57;1.52;;;;;;;;;;4867374;29;20850;-74
2022/02/20 10:30:10;;;;;;;4.93;1.20;;;;;;;;;;4876677;29;20037;-74
2022/02/20 10:32:36;;;;;;;8.90;1.65;;;;;;;;;;4873614;29;20046;-73
2022/02/20 10:35:06;;;;;;;5.82;1.40;;;;;;;;;;4873522;29;20025;-74
2022/02/20 10:37:32;;;;;;;8.00;1.60;;;;;;;;;;4866827;29;20052;-73
2022/02/20 10:39:58;;;;;;;6.43;1.27;;;;;;;;;;4869787;29;20033;-73
2022/02/20 10:42:27;;;;;;;7.25;1.52;;;;;;;;;;4870334;29;20087;-74
2022/02/20 10:44:59;;;;;;;5.85;1.75;;;;;;;;;;4870926;29;20093;-74
2022/02/20 10:47:25;;;;;;;8.55;1.88;;;;;;;;;;4873862;29;20124;-74
2022/02/20 10:49:51;;;;;;;5.00;1.52;;;;;;;;;;4867490;29;20033;-74
2022/02/20 10:52:25;;;;;;;5.70;1.60;;;;;;;;;;4875076;29;20093;-74
2022/02/20 10:55:10;;;;;;;5.97;1.40;;;;;;;;;;4870899;29;20527;-74
2022/02/20 10:57:37;;;;;;;7.85;1.77;;;;;;;;;;4870123;29;20788;-74
2022/02/20 11:00:10;;;;;;;5.05;1.38;;;;;;;;;;4874270;29;20379;-74
2022/02/20 11:02:36;;;;;;;8.73;1.40;;;;;;;;;;4859993;29;20045;-73
2022/02/20 11:05:03;;;;;;;6.25;1.45;;;;;;;;;;4865467;29;20047;-74
2022/02/20 11:07:29;;;;;;;4.57;1.17;;;;;;;;;;4875897;29;20067;-74
2022/02/20 11:09:55;;;;;;;4.70;1.55;;;;;;;;;;4868871;29;20037;-74
2022/02/20 11:12:21;;;;;;;8.05;1.50;;;;;;;;;;4864294;29;20093;-74
2022/02/20 11:14:47;;;;;;;4.93;1.20;;;;;;;;;;4861277;29;20036;-74
2022/02/20 11:17:14;;;;;;;4.40;1.02;;;;;;;;;;4871413;29;20060;-74
2022/02/20 11:19:42;;;;;;;7.43;1.45;;;;;;;;;;4873766;29;20077;-74
2022/02/20 11:22:09;;;;;;;4.43;1.40;;;;;;;;;;4868947;29;20124;-74
2022/02/20 11:24:35;;;;;;;4.55;1.20;;;;;;;;;;4867807;29;20037;-74
2022/02/20 11:27:03;;;;;;;5.03;1.30;;;;;;;;;;4870687;29;20052;-75
2022/02/20 11:29:30;;;;;;;7.53;1.25;;;;;;;;;;4866360;29;20138;-74
2022/02/20 11:31:57;;;;;;;4.10;0.90;;;;;;;;;;4864379;29;20421;-74
2022/02/20 11:34:23;;;;;;;1.95;0.60;;;;;;;;;;4868307;29;20059;-74
2022/02/20 11:36:53;;;;;;;4.32;0.88;;;;;;;;;;4870893;29;20626;-74
2022/02/20 11:39:20;;;;;;;4.15;0.80;;;;;;;;;;4863678;29;20029;-74
2022/02/20 11:42:04;;;;;;;5.20;0.80;;;;;;;;;;4865432;29;20128;-74
2022/02/20 11:44:44;;;;;;;5.32;0.85;;;;;;;;;;4867400;29;20041;-75
2022/02/20 11:47:10;;;;;;;6.63;1.17;;;;;;;;;;4868235;29;20040;-74
2022/02/20 11:49:36;;;;;;;4.72;1.13;;;;;;;;;;4872999;29;20128;-74
2022/02/20 11:52:14;;;;;;;3.60;0.80;;;;;;;;;;4874083;29;20045;-74
2022/02/20 11:54:40;;;;;;;4.57;0.70;;;;;;;;;;4859549;29;20344;-74
2022/02/20 11:57:12;;;;;;;5.07;0.82;;;;;;;;;;4869281;29;20076;-74
2022/02/20 11:59:59;;;;;;;5.88;0.85;;;;;;;;;;4874642;29;20060;-73
2022/02/20 12:02:25;;;;;;;3.45;0.85;;;;;;;;;;4865578;29;20079;-74
2022/02/20 12:04:51;;;;;;;5.32;0.70;;;;;;;;;;4869053;29;21792;-74
2022/02/20 12:07:30;;;;;;;3.80;1.02;;;;;;;;;;4863285;29;20080;-74
2022/02/20 12:10:15;;;;;;;3.70;0.88;;;;;;;;;;4866938;29;20720;-75
2022/02/20 12:12:42;;;;;;;2.58;0.65;;;;;;;;;;4865342;29;20052;-74
2022/02/20 12:15:27;;;;;;;3.47;0.73;;;;;;;;;;4862451;29;20052;-74
2022/02/20 12:18:02;;;;;;;1.95;0.47;;;;;;;;;;4867989;29;20117;-75
2022/02/20 12:20:47;;;;;;;3.38;0.80;;;;;;;;;;4868424;29;20104;-74
2022/02/20 12:23:45;;;;;;;3.33;0.68;;;;;;;;;;4852790;29;20089;-74
2022/02/20 12:26:30;;;;;;;3.47;0.90;;;;;;;;;;4843142;29;20052;-74
2022/02/20 12:29:10;;;;;;;2.30;0.52;;;;;;;;;;4871604;29;20041;-75
2022/02/20 12:31:56;;;;;;;4.47;0.60;;;;;;;;;;4874688;29;20037;-74
2022/02/20 12:34:40;;;;;;;3.33;0.60;;;;;;;;;;4872098;29;20089;-74
2022/02/20 12:37:07;;;;;;;3.42;0.85;;;;;;;;;;4868677;29;20494;-75
2022/02/20 12:39:33;;;;;;;3.63;0.93;;;;;;;;;;4869890;29;20061;-75
2022/02/20 12:42:02;;;;;;;4.32;0.90;;;;;;;;;;4869319;29;21961;-75
2022/02/20 12:44:30;;;;;;;4.63;0.80;;;;;;;;;;4860186;29;20429;-75
2022/02/20 12:46:56;;;;;;;3.38;0.90;;;;;;;;;;4873559;29;20072;-75
2022/02/20 12:49:22;;;;;;;2.95;0.70;;;;;;;;;;4868128;29;20048;-75
2022/02/20 12:51:48;;;;;;;5.93;1.23;;;;;;;;;;4868875;29;20033;-75
2022/02/20 12:54:14;;;;;;;3.55;1.00;;;;;;;;;;4873330;29;20044;-75
2022/02/20 12:56:40;;;;;;;4.57;0.80;;;;;;;;;;4870830;29;20034;-75
2022/02/20 12:59:06;;;;;;;4.40;1.10;;;;;;;;;;4874670;29;20043;-75
2022/02/20 13:01:32;;;;;;;4.40;1.00;;;;;;;;;;4873785;29;20614;-75
2022/02/20 13:03:58;;;;;;;4.70;1.08;;;;;;;;;;4876615;29;20581;-75
2022/02/20 13:06:35;;;;;;;3.90;1.08;;;;;;;;;;4875229;29;20207;-75
2022/02/20 13:09:01;;;;;;;5.38;0.95;;;;;;;;;;4872003;29;20045;-75
2022/02/20 13:11:29;;;;;;;4.80;1.13;;;;;;;;;;4860678;29;21957;-75
2022/02/20 13:14:07;;;;;;;5.10;0.95;;;;;;;;;;4870563;29;20078;-75
2022/02/20 13:16:33;;;;;;;5.30;0.98;;;;;;;;;;4872794;29;20049;-75
2022/02/20 13:18:59;;;;;;;4.75;0.70;;;;;;;;;;4875478;29;20516;-75
2022/02/20 13:21:29;;;;;;;8.52;1.50;;;;;;;;;;4876355;29;20037;-75
2022/02/20 13:23:55;;;;;;;4.60;0.85;;;;;;;;;;4868552;29;20395;-76
2022/02/20 13:26:24;;;;;;;4.68;0.80;;;;;;;;;;4877192;29;20044;-76
2022/02/20 13:28:56;;;;;;;4.35;1.38;;;;;;;;;;4873728;29;20111;-75
2022/02/20 13:31:23;;;;;;;3.17;0.60;;;;;;;;;;4863311;29;20108;-77
2022/02/20 13:33:50;;;;;;;3.30;0.77;;;;;;;;;;4872458;29;20068;-76
2022/02/20 13:36:20;;;;;;;4.47;0.90;;;;;;;;;;4871201;29;20516;-76
2022/02/20 13:38:49;;;;;;;2.72;0.75;;;;;;;;;;4865774;29;20044;-75
2022/02/20 13:41:20;;;;;;;2.90;0.68;;;;;;;;;;4873555;29;20040;-76
2022/02/20 13:43:51;;;;;;;3.22;0.80;;;;;;;;;;4877230;29;20055;-73
2022/02/20 13:46:38;;;;;;;8.00;0.90;;;;;;;;;;4868326;29;20029;-76
2022/02/20 13:49:07;;;;;;;2.35;0.63;;;;;;;;;;4864696;29;20963;-76
2022/02/20 13:51:38;;;;;;;2.08;0.65;;;;;;;;;;4867298;29;20037;-76
2022/02/20 13:54:06;;;;;;;6.00;0.80;;;;;;;;;;4858980;29;20060;-76
2022/02/20 13:56:39;;;;;;;3.78;0.60;;;;;;;;;;4875292;29;20044;-76
2022/02/20 13:59:05;;;;;;;3.95;0.50;;;;;;;;;;4876933;29;20082;-76
2022/02/20 14:01:48;;;;;;;4.13;0.63;;;;;;;;;;4870514;29;20200;-75
2022/02/20 14:04:25;;;;;;;8.07;0.60;;;;;;;;;;4868260;29;20089;-76
2022/02/20 14:07:12;;;;;;;4.53;0.73;;;;;;;;;;4867672;29;20432;-76
2022/02/20 14:09:43;;;;;;;5.13;0.60;;;;;;;;;;4874132;29;20113;-76
2022/02/20 14:12:22;;;;;;;5.15;0.60;;;;;;;;;;4864812;29;20090;-75
2022/02/20 14:14:57;;;;;;;2.67;0.50;;;;;;;;;;4869595;29;20081;-76
2022/02/20 14:17:23;;;;;;;4.22;0.63;;;;;;;;;;4870394;29;20195;-76
2022/02/20 14:19:54;;;;;;;2.65;0.65;;;;;;;;;;4876403;29;20134;-76
2022/02/20 14:22:24;;;;;;;4.22;0.73;;;;;;;;;;4875571;29;20033;-76
2022/02/20 14:24:59;;;;;;;4.72;0.70;;;;;;;;;;4865101;29;20097;-76
2022/02/20 14:27:34;;;;;;;4.00;0.88;;;;;;;;;;4867842;29;20123;-75
2022/02/20 14:30:00;;;;;;;2.60;0.60;;;;;;;;;;4875636;29;20721;-75
2022/02/20 14:32:28;;;;;;;3.72;0.68;;;;;;;;;;4873204;29;20541;-75
2022/02/20 14:34:55;;;;;;;7.15;0.70;;;;;;;;;;4873423;29;20500;-76
2022/02/20 14:37:32;;;;;;;3.78;0.60;;;;;;;;;;4873484;29;20041;-76
2022/02/20 14:39:58;;;;;;;2.72;0.63;;;;;;;;;;4867929;29;20498;-76